Time;durP1;ratioP1;P1;durP2;ratioP2;P2;SDS_P1;SDS_P2;PMS_P1;PMS_P2;Temp;Humidity;BMP_temperature;BMP_pressure;BME280_temperature;BME280_humidity;BME280_pressure;Samples;Min_cycle;Max_cycle;Signal;HPM_P1;HPM_P2
2022/01/05 00:00:32;;;;;;;12.35;3.63;;;6.80;99.90;;;;;;5078356;28;20025;-80
2022/01/05 00:02:58;;;;;;;13.05;3.20;;;6.70;99.90;;;;;;5082093;28;20013;-78
2022/01/05 00:05:24;;;;;;;12.25;2.90;;;6.70;99.90;;;;;;5081912;28;20032;-80
2022/01/05 00:07:50;;;;;;;13.73;2.55;;;6.70;99.90;;;;;;5082283;28;20025;-80
2022/01/05 00:10:16;;;;;;;16.55;2.55;;;6.60;99.90;;;;;;5081776;28;20095;-80
2022/01/05 00:12:41;;;;;;;9.48;2.40;;;6.60;99.90;;;;;;5083591;28;20032;-80
2022/01/05 00:15:08;;;;;;;12.43;3.45;;;6.60;99.90;;;;;;5081986;28;20044;-80
2022/01/05 00:17:33;;;;;;;16.00;2.97;;;6.60;99.90;;;;;;5082853;28;20055;-79
2022/01/05 00:19:59;;;;;;;10.48;2.72;;;6.60;99.90;;;;;;5083174;28;20028;-80
2022/01/05 00:22:25;;;;;;;11.68;2.67;;;6.60;99.90;;;;;;5074650;28;20032;-80
2022/01/05 00:24:50;;;;;;;13.32;2.78;;;6.50;99.90;;;;;;5084041;28;20107;-80
2022/01/05 00:27:16;;;;;;;4.95;2.28;;;6.40;99.90;;;;;;5085687;28;20044;-78
2022/01/05 00:29:42;;;;;;;17.13;3.28;;;6.30;99.90;;;;;;5080597;28;20016;-80
2022/01/05 00:32:08;;;;;;;12.88;3.22;;;6.40;99.90;;;;;;5080023;28;20066;-79
2022/01/05 00:34:34;;;;;;;13.68;2.90;;;6.30;99.90;;;;;;5081391;28;20076;-80
2022/01/05 00:37:00;;;;;;;15.85;3.08;;;6.40;99.90;;;;;;5089164;28;20022;-80
2022/01/05 00:39:26;;;;;;;14.70;3.00;;;6.40;99.90;;;;;;5092729;28;20466;-80
2022/01/05 00:41:51;;;;;;;18.25;3.33;;;6.30;99.90;;;;;;5092703;28;20012;-80
2022/01/05 00:44:19;;;;;;;8.50;2.40;;;6.40;99.90;;;;;;5092652;28;20106;-80
2022/01/05 00:46:44;;;;;;;20.40;3.97;;;6.30;99.90;;;;;;5091624;28;20025;-80
2022/01/05 00:49:11;;;;;;;19.92;3.45;;;6.40;99.90;;;;;;5084744;28;20559;-80
2022/01/05 00:51:36;;;;;;;7.85;2.70;;;6.30;99.90;;;;;;5091998;28;20019;-79
2022/01/05 00:54:02;;;;;;;16.52;3.17;;;6.30;99.90;;;;;;5085449;28;20043;-80
2022/01/05 00:56:28;;;;;;;16.90;3.17;;;6.20;99.90;;;;;;5092528;28;20021;-80
2022/01/05 00:58:54;;;;;;;19.35;3.42;;;6.20;99.90;;;;;;5091355;28;20472;-80
2022/01/05 01:01:19;;;;;;;11.90;2.92;;;6.10;99.90;;;;;;5091782;28;20024;-79
2022/01/05 01:03:45;;;;;;;16.05;3.13;;;6.10;99.90;;;;;;5087435;28;20021;-80
2022/01/05 01:06:11;;;;;;;12.18;2.88;;;6.10;99.90;;;;;;5082368;28;20055;-80
2022/01/05 01:08:36;;;;;;;10.95;2.58;;;6.00;99.90;;;;;;5092213;28;20049;-80
2022/01/05 01:11:02;;;;;;;18.33;3.20;;;6.10;99.90;;;;;;5091074;28;20032;-80
2022/01/05 01:13:28;;;;;;;13.02;3.08;;;5.90;99.90;;;;;;5090160;28;20031;-80
2022/01/05 01:15:54;;;;;;;14.48;3.22;;;6.00;99.90;;;;;;5083260;28;20036;-80
2022/01/05 01:18:20;;;;;;;13.88;2.80;;;5.90;99.90;;;;;;5082971;28;20495;-78
2022/01/05 01:20:49;;;;;;;17.70;3.58;;;5.80;99.90;;;;;;5078043;28;20043;-77
2022/01/05 01:23:18;;;;;;;12.98;3.42;;;5.80;99.90;;;;;;5080464;28;20036;-77
2022/01/05 01:25:44;;;;;;;11.75;3.17;;;5.70;99.90;;;;;;5082270;28;20024;-77
2022/01/05 01:28:10;;;;;;;13.45;3.45;;;5.70;99.90;;;;;;5082232;28;20370;-78
2022/01/05 01:30:36;;;;;;;15.43;3.40;;;5.60;99.90;;;;;;5081511;28;20594;-77
2022/01/05 01:33:02;;;;;;;15.05;3.10;;;5.60;99.90;;;;;;5083528;28;20063;-78
2022/01/05 01:35:28;;;;;;;18.80;3.15;;;5.60;99.90;;;;;;5079816;28;20671;-77
2022/01/05 01:37:54;;;;;;;14.27;2.95;;;5.60;99.90;;;;;;5079427;28;20012;-78
2022/01/05 01:40:20;;;;;;;22.85;3.65;;;5.60;99.90;;;;;;5079050;28;20077;-78
2022/01/05 01:42:46;;;;;;;13.57;3.03;;;5.60;99.90;;;;;;5081461;28;20017;-78
2022/01/05 01:45:12;;;;;;;12.02;3.25;;;5.60;99.90;;;;;;5080335;28;20047;-74
2022/01/05 01:47:38;;;;;;;25.88;4.43;;;5.60;99.90;;;;;;5081817;28;20495;-77
2022/01/05 01:50:04;;;;;;;13.00;3.10;;;5.50;99.90;;;;;;5081232;28;20025;-76
2022/01/05 01:52:29;;;;;;;19.17;3.20;;;5.50;99.90;;;;;;5080522;28;20016;-75
2022/01/05 01:54:56;;;;;;;14.52;3.25;;;5.50;99.90;;;;;;5081643;28;20541;-79
2022/01/05 01:57:22;;;;;;;13.52;2.80;;;5.50;99.90;;;;;;5079577;28;20430;-78
2022/01/05 01:59:48;;;;;;;16.52;3.53;;;5.40;99.90;;;;;;5086276;28;20082;-78
2022/01/05 02:02:17;;;;;;;19.33;3.70;;;5.40;99.90;;;;;;5082587;28;20489;-78
2022/01/05 02:04:44;;;;;;;15.85;3.10;;;5.30;99.90;;;;;;5081428;28;20028;-78
2022/01/05 02:07:10;;;;;;;13.15;2.83;;;5.30;99.90;;;;;;5082295;28;20426;-78
2022/01/05 02:09:37;;;;;;;14.85;3.78;;;5.30;99.90;;;;;;5081409;28;20029;-78
2022/01/05 02:12:05;;;;;;;13.30;2.90;;;5.30;99.90;;;;;;5082968;28;20027;-78
2022/01/05 02:14:31;;;;;;;20.08;3.30;;;5.30;99.90;;;;;;5086850;28;20471;-78
2022/01/05 02:16:58;;;;;;;13.13;3.38;;;5.30;99.90;;;;;;5085220;28;20013;-78
2022/01/05 02:19:24;;;;;;;14.55;2.67;;;5.30;99.90;;;;;;5086070;28;20023;-77
2022/01/05 02:21:49;;;;;;;15.55;2.90;;;5.30;99.90;;;;;;5086845;28;20435;-78
2022/01/05 02:24:15;;;;;;;10.27;2.95;;;5.30;99.90;;;;;;5084573;28;20090;-78
2022/01/05 02:26:42;;;;;;;10.35;2.42;;;5.30;99.90;;;;;;5084095;28;20044;-78
2022/01/05 02:29:08;;;;;;;15.75;3.05;;;5.30;99.90;;;;;;5086163;28;20028;-78
2022/01/05 02:31:34;;;;;;;14.93;3.13;;;5.30;99.90;;;;;;5083931;28;20021;-78
2022/01/05 02:34:01;;;;;;;10.57;3.13;;;5.30;99.90;;;;;;5085812;28;20036;-78
2022/01/05 02:36:27;;;;;;;10.50;2.58;;;5.20;99.90;;;;;;5084155;28;20027;-78
2022/01/05 02:38:53;;;;;;;16.77;3.55;;;5.20;99.90;;;;;;5085227;28;20070;-78
2022/01/05 02:41:19;;;;;;;13.82;2.75;;;5.10;99.90;;;;;;5084447;28;20095;-78
2022/01/05 02:43:45;;;;;;;13.15;2.50;;;5.10;99.90;;;;;;5084663;28;20166;-79
2022/01/05 02:46:13;;;;;;;15.68;3.13;;;4.90;99.90;;;;;;5085286;28;20039;-78
2022/01/05 02:48:39;;;;;;;12.95;2.65;;;5.00;99.90;;;;;;5084835;28;20035;-78
2022/01/05 02:51:06;;;;;;;18.60;3.08;;;4.80;99.90;;;;;;5084065;28;20025;-77
2022/01/05 02:53:33;;;;;;;11.68;3.13;;;4.80;99.90;;;;;;5084658;28;20480;-78
2022/01/05 02:55:59;;;;;;;15.23;3.17;;;4.90;99.90;;;;;;5082611;28;20021;-79
2022/01/05 02:58:25;;;;;;;16.25;3.40;;;5.10;99.90;;;;;;5082828;28;20499;-78
2022/01/05 03:00:50;;;;;;;14.32;4.10;;;5.00;99.90;;;;;;5084454;28;20039;-79
2022/01/05 03:03:16;;;;;;;16.25;3.38;;;5.10;99.90;;;;;;5083955;28;20021;-78
2022/01/05 03:05:42;;;;;;;22.95;3.58;;;5.10;99.90;;;;;;5082569;28;20066;-79
2022/01/05 03:08:08;;;;;;;13.75;3.40;;;5.10;99.90;;;;;;5086324;28;20060;-79
2022/01/05 03:10:34;;;;;;;14.93;3.28;;;5.00;99.90;;;;;;5084760;28;20016;-79
2022/01/05 03:13:00;;;;;;;14.90;3.20;;;5.10;99.90;;;;;;5083741;28;20035;-79
2022/01/05 03:15:25;;;;;;;14.93;2.80;;;4.90;99.90;;;;;;5082684;28;20408;-79
2022/01/05 03:17:51;;;;;;;13.60;3.08;;;4.80;99.90;;;;;;5083035;28;20021;-79
2022/01/05 03:20:20;;;;;;;15.57;3.40;;;4.80;99.90;;;;;;5083494;28;20028;-79
2022/01/05 03:22:46;;;;;;;13.20;2.95;;;4.90;99.90;;;;;;5084015;28;20051;-79
2022/01/05 03:25:16;;;;;;;11.55;3.08;;;4.90;99.90;;;;;;5082829;28;20025;-78
2022/01/05 03:27:49;;;;;;;11.30;3.38;;;4.80;99.90;;;;;;5083994;28;20024;-79
2022/01/05 03:30:24;;;;;;;12.43;2.92;;;4.70;99.90;;;;;;5082830;28;20032;-79
2022/01/05 03:35:37;;;;;;;19.55;3.85;;;4.70;99.90;;;;;;5081493;28;20047;-79
2022/01/05 03:38:04;;;;;;;16.35;3.78;;;4.70;99.90;;;;;;5082686;28;20020;-78
2022/01/05 03:40:32;;;;;;;23.30;4.20;;;4.80;99.90;;;;;;5082116;28;20025;-79
2022/01/05 03:42:59;;;;;;;13.23;3.25;;;4.80;99.90;;;;;;5083029;28;20111;-79
2022/01/05 03:45:24;;;;;;;16.30;3.67;;;4.70;99.90;;;;;;5081970;28;20499;-79
2022/01/05 03:47:50;;;;;;;17.05;4.00;;;4.70;99.90;;;;;;5083720;28;20020;-79
2022/01/05 03:50:15;;;;;;;12.02;3.50;;;4.70;99.90;;;;;;5081630;28;20032;-79
2022/01/05 03:52:41;;;;;;;14.77;3.33;;;4.70;99.90;;;;;;5081673;28;20048;-79
2022/01/05 03:55:07;;;;;;;19.08;3.50;;;4.80;99.90;;;;;;5083958;28;20476;-79
2022/01/05 03:57:34;;;;;;;16.15;3.53;;;4.80;99.90;;;;;;5081104;28;20020;-78
2022/01/05 04:00:00;;;;;;;16.58;4.20;;;4.70;99.90;;;;;;5081042;28;20020;-79
2022/01/05 04:02:26;;;;;;;14.00;3.55;;;4.60;99.90;;;;;;5083672;28;20019;-79
2022/01/05 04:04:52;;;;;;;15.15;3.75;;;4.60;99.90;;;;;;5081849;28;20032;-80
2022/01/05 04:07:18;;;;;;;13.68;3.53;;;4.50;99.90;;;;;;5082016;28;20028;-79
2022/01/05 04:09:45;;;;;;;16.40;3.90;;;4.50;99.90;;;;;;5082489;28;20029;-79
2022/01/05 04:12:11;;;;;;;18.92;4.10;;;4.50;99.90;;;;;;5081482;28;20472;-79
2022/01/05 04:14:37;;;;;;;14.38;3.80;;;4.60;99.90;;;;;;5082401;28;20482;-79
2022/01/05 04:17:04;;;;;;;11.30;3.78;;;4.60;99.90;;;;;;5082543;28;20107;-78
2022/01/05 04:19:31;;;;;;;17.38;4.13;;;4.60;99.90;;;;;;5081557;28;20045;-79
2022/01/05 04:21:57;;;;;;;23.63;3.97;;;4.50;99.90;;;;;;5081462;28;20027;-79
2022/01/05 04:24:23;;;;;;;12.20;3.72;;;4.50;99.90;;;;;;5081192;28;20113;-79
2022/01/05 04:26:48;;;;;;;18.33;4.38;;;4.50;99.90;;;;;;5082199;28;20047;-79
2022/01/05 04:29:14;;;;;;;18.00;3.83;;;4.40;99.90;;;;;;5081832;28;20392;-80
2022/01/05 04:31:40;;;;;;;17.92;4.03;;;4.50;99.90;;;;;;5081409;28;20015;-80
2022/01/05 04:34:05;;;;;;;17.55;3.70;;;4.40;99.90;;;;;;5082381;28;20535;-79
2022/01/05 04:36:31;;;;;;;12.98;3.85;;;4.50;99.90;;;;;;5077632;28;20025;-79
2022/01/05 04:38:57;;;;;;;13.60;3.70;;;4.40;99.90;;;;;;5084047;28;20024;-79
2022/01/05 04:41:23;;;;;;;21.17;4.22;;;4.40;99.90;;;;;;5093208;28;20024;-80
2022/01/05 04:43:48;;;;;;;16.00;3.45;;;4.30;99.90;;;;;;5093497;28;20020;-80
2022/01/05 04:46:14;;;;;;;17.85;3.92;;;4.40;99.90;;;;;;5093439;28;20036;-80
2022/01/05 04:48:41;;;;;;;13.15;3.38;;;4.30;99.90;;;;;;5092134;28;20027;-80
2022/01/05 04:51:07;;;;;;;21.85;4.43;;;4.30;99.90;;;;;;5093367;28;20028;-79
2022/01/05 04:53:33;;;;;;;15.93;3.47;;;4.30;99.90;;;;;;5093336;28;20039;-80
2022/01/05 04:55:59;;;;;;;15.32;3.50;;;4.20;99.90;;;;;;5092990;28;20411;-79
2022/01/05 04:58:24;;;;;;;16.95;3.83;;;4.30;99.90;;;;;;5093254;28;20028;-79
2022/01/05 05:00:50;;;;;;;16.38;3.83;;;4.20;99.90;;;;;;5091959;28;20016;-79
2022/01/05 05:03:16;;;;;;;21.17;3.72;;;4.20;99.90;;;;;;5091581;28;20041;-79
2022/01/05 05:05:41;;;;;;;19.70;3.67;;;4.10;99.90;;;;;;5083070;28;20032;-79
2022/01/05 05:08:08;;;;;;;14.63;3.65;;;4.30;99.90;;;;;;5072197;28;20102;-78
2022/01/05 05:10:33;;;;;;;16.20;3.58;;;4.20;99.90;;;;;;5072720;28;20024;-79
2022/01/05 05:13:06;;;;;;;18.27;4.00;;;4.20;99.90;;;;;;5075134;28;20032;-79
2022/01/05 05:15:32;;;;;;;15.10;3.65;;;4.10;99.90;;;;;;5093170;28;20044;-79
2022/01/05 05:17:57;;;;;;;19.85;4.40;;;4.10;99.90;;;;;;5092145;28;20028;-78
2022/01/05 05:20:23;;;;;;;25.13;4.25;;;4.10;99.90;;;;;;5093118;28;20024;-79
2022/01/05 05:22:49;;;;;;;17.48;4.28;;;4.10;99.90;;;;;;5092820;28;20025;-79
2022/01/05 05:25:14;;;;;;;19.05;4.32;;;4.20;99.90;;;;;;5074185;28;20031;-78
2022/01/05 05:27:40;;;;;;;15.27;3.75;;;4.10;99.90;;;;;;5071225;28;20526;-79
2022/01/05 05:30:06;;;;;;;18.33;3.60;;;4.20;99.90;;;;;;5072879;28;20021;-79
2022/01/05 05:32:32;;;;;;;19.33;4.00;;;4.20;99.90;;;;;;5071429;28;20158;-79
2022/01/05 05:34:58;;;;;;;17.63;3.97;;;4.20;99.90;;;;;;5072863;28;20119;-79
2022/01/05 05:37:24;;;;;;;10.00;3.55;;;4.10;99.90;;;;;;5071632;28;20025;-79
2022/01/05 05:39:49;;;;;;;22.20;4.75;;;4.10;99.90;;;;;;5085257;28;20070;-78
2022/01/05 05:42:15;;;;;;;17.05;3.30;;;4.10;99.90;;;;;;5092826;28;20471;-79
2022/01/05 05:44:40;;;;;;;17.15;3.40;;;4.10;99.90;;;;;;5092839;28;20608;-78
2022/01/05 05:47:06;;;;;;;19.80;3.65;;;4.00;99.90;;;;;;5096767;28;20021;-79
2022/01/05 05:49:32;;;;;;;23.80;3.85;;;4.10;99.90;;;;;;5098987;28;20073;-78
2022/01/05 05:51:58;;;;;;;23.70;4.18;;;4.00;99.90;;;;;;5101056;28;20059;-77
2022/01/05 05:54:24;;;;;;;14.30;3.90;;;4.00;99.90;;;;;;5094893;28;20440;-79
2022/01/05 05:56:49;;;;;;;13.45;3.55;;;4.10;99.90;;;;;;5096380;28;20024;-78
2022/01/05 05:59:15;;;;;;;15.15;3.30;;;4.00;99.90;;;;;;5095473;28;20028;-79
2022/01/05 06:01:41;;;;;;;20.75;3.33;;;4.10;99.90;;;;;;5096245;28;20024;-79
2022/01/05 06:04:06;;;;;;;17.90;4.05;;;4.00;99.90;;;;;;5096399;28;20107;-79
2022/01/05 06:06:32;;;;;;;16.40;4.03;;;4.10;99.90;;;;;;5096578;28;20028;-79
2022/01/05 06:08:58;;;;;;;16.27;3.65;;;4.10;99.90;;;;;;5087740;28;20063;-79
2022/01/05 06:11:23;;;;;;;22.25;4.45;;;4.20;99.90;;;;;;5076090;28;20025;-79
2022/01/05 06:13:50;;;;;;;28.92;4.38;;;4.20;99.90;;;;;;5075856;28;20028;-79
2022/01/05 06:16:16;;;;;;;17.17;3.30;;;4.20;99.90;;;;;;5076033;28;20481;-78
2022/01/05 06:18:42;;;;;;;26.10;4.03;;;4.10;99.90;;;;;;5075937;28;20021;-80
2022/01/05 06:21:08;;;;;;;19.00;4.53;;;4.10;99.90;;;;;;5076268;28;20039;-78
2022/01/05 06:23:33;;;;;;;17.98;4.10;;;4.20;99.90;;;;;;5075563;28;20122;-79
2022/01/05 06:25:59;;;;;;;16.95;4.05;;;4.20;99.90;;;;;;5075627;28;20025;-79
2022/01/05 06:28:25;;;;;;;18.23;3.63;;;4.20;99.90;;;;;;5075633;28;20048;-79
2022/01/05 06:30:50;;;;;;;21.30;4.00;;;4.20;99.90;;;;;;5074820;28;20024;-79
2022/01/05 06:33:16;;;;;;;19.80;4.55;;;4.10;99.90;;;;;;5096111;28;20384;-79
2022/01/05 06:35:42;;;;;;;15.20;3.53;;;4.20;99.90;;;;;;5095055;28;20067;-79
2022/01/05 06:38:08;;;;;;;18.23;4.30;;;4.10;99.90;;;;;;5094520;28;20028;-79
2022/01/05 06:40:33;;;;;;;14.85;3.95;;;4.20;99.90;;;;;;5075560;28;20029;-80
2022/01/05 06:43:01;;;;;;;20.58;4.25;;;4.20;99.90;;;;;;5074285;28;20039;-79
2022/01/05 06:45:26;;;;;;;15.25;3.80;;;4.20;99.90;;;;;;5075137;28;20021;-79
2022/01/05 06:47:52;;;;;;;16.83;4.20;;;4.20;99.90;;;;;;5073507;28;20085;-80
2022/01/05 06:50:18;;;;;;;20.13;4.00;;;4.20;99.90;;;;;;5075518;28;20488;-79
2022/01/05 06:52:44;;;;;;;16.50;3.97;;;4.30;99.90;;;;;;5086328;28;20099;-80
2022/01/05 06:55:10;;;;;;;24.35;4.63;;;4.20;99.90;;;;;;5094445;28;20088;-79
2022/01/05 06:57:39;;;;;;;16.80;4.25;;;4.20;99.90;;;;;;5094903;28;20024;-80
2022/01/05 07:00:06;;;;;;;22.00;3.97;;;4.20;99.90;;;;;;5094958;28;20020;-79
2022/01/05 07:02:32;;;;;;;24.30;5.28;;;4.20;99.90;;;;;;5094032;28;20028;-79
2022/01/05 07:04:57;;;;;;;22.27;5.15;;;4.20;99.90;;;;;;5094757;28;20040;-79
2022/01/05 07:07:23;;;;;;;17.45;4.00;;;4.30;99.90;;;;;;5093773;28;20030;-79
2022/01/05 07:09:48;;;;;;;19.30;4.18;;;4.30;99.90;;;;;;5083061;28;20028;-80
2022/01/05 07:12:14;;;;;;;20.45;4.85;;;4.30;99.90;;;;;;5073920;28;20027;-80
2022/01/05 07:14:40;;;;;;;14.50;3.90;;;4.30;99.90;;;;;;5074969;28;20037;-80
2022/01/05 07:17:06;;;;;;;19.52;3.85;;;4.40;99.90;;;;;;5073302;28;20496;-80
2022/01/05 07:19:31;;;;;;;21.38;4.13;;;4.40;99.90;;;;;;5074822;28;20028;-79
2022/01/05 07:21:57;;;;;;;17.77;3.55;;;4.30;99.90;;;;;;5074487;28;20066;-80
2022/01/05 07:24:23;;;;;;;16.42;3.67;;;4.30;99.90;;;;;;5079494;28;20059;-80
2022/01/05 07:26:48;;;;;;;21.48;4.40;;;4.40;99.90;;;;;;5094715;28;20469;-76
2022/01/05 07:29:16;;;;;;;22.33;3.45;;;4.40;99.90;;;;;;5093443;28;20024;-80
2022/01/05 07:31:42;;;;;;;22.83;4.57;;;4.50;99.90;;;;;;5094833;28;20638;-80
2022/01/05 07:34:08;;;;;;;21.05;3.97;;;4.50;99.90;;;;;;5094502;28;20035;-80
2022/01/05 07:36:34;;;;;;;12.23;3.70;;;4.50;99.90;;;;;;5091137;28;20411;-77
2022/01/05 07:39:03;;;;;;;18.60;3.85;;;4.50;99.90;;;;;;5090709;28;20069;-80
2022/01/05 07:41:29;;;;;;;19.45;4.22;;;4.50;99.90;;;;;;5073540;28;20020;-80
2022/01/05 07:43:54;;;;;;;20.80;4.13;;;4.50;99.90;;;;;;5073766;28;20028;-78
2022/01/05 07:46:20;;;;;;;23.08;4.25;;;4.50;99.90;;;;;;5078489;28;20464;-76
2022/01/05 07:48:46;;;;;;;21.70;3.92;;;4.40;99.90;;;;;;5093062;28;20027;-77
2022/01/05 07:51:12;;;;;;;13.50;4.00;;;4.40;99.90;;;;;;5094170;28;20029;-78
2022/01/05 07:53:38;;;;;;;21.77;4.20;;;4.50;99.90;;;;;;5094521;28;20036;-77
2022/01/05 07:56:04;;;;;;;21.75;4.25;;;4.60;99.90;;;;;;5086713;28;20036;-79
2022/01/05 07:58:30;;;;;;;18.17;3.85;;;4.50;99.90;;;;;;5073730;28;20372;-76
2022/01/05 08:00:56;;;;;;;20.10;4.22;;;4.60;99.90;;;;;;5072212;28;20032;-80
2022/01/05 08:03:22;;;;;;;19.85;4.30;;;4.50;99.90;;;;;;5090459;28;20020;-79
2022/01/05 08:05:50;;;;;;;20.95;4.45;;;4.60;99.90;;;;;;5093743;28;20584;-80
2022/01/05 08:08:16;;;;;;;16.52;3.67;;;4.70;99.90;;;;;;5092645;28;20453;-79
2022/01/05 08:10:42;;;;;;;21.55;4.32;;;4.70;99.90;;;;;;5080351;28;20094;-79
2022/01/05 08:13:07;;;;;;;14.73;3.70;;;4.70;99.90;;;;;;5073369;28;20477;-78
2022/01/05 08:15:33;;;;;;;22.33;4.82;;;4.70;99.90;;;;;;5073668;28;20392;-78
2022/01/05 08:17:59;;;;;;;16.98;3.30;;;4.70;99.90;;;;;;5073487;28;20070;-78
2022/01/05 08:20:24;;;;;;;15.57;3.92;;;4.70;99.90;;;;;;5073770;28;20032;-78
2022/01/05 08:22:50;;;;;;;19.67;5.07;;;4.70;99.90;;;;;;5096424;28;20028;-79
2022/01/05 08:25:18;;;;;;;15.45;4.07;;;4.80;99.90;;;;;;5105741;28;20069;-78
2022/01/05 08:27:47;;;;;;;14.70;3.42;;;4.80;99.90;;;;;;5089631;28;20024;-78
2022/01/05 08:30:18;;;;;;;23.58;4.65;;;4.80;99.90;;;;;;5085037;28;20081;-78
2022/01/05 08:32:46;;;;;;;20.63;4.30;;;4.80;99.90;;;;;;5086683;28;20384;-77
2022/01/05 08:35:14;;;;;;;20.45;4.40;;;4.80;99.90;;;;;;5093122;28;20028;-78
2022/01/05 08:37:44;;;;;;;15.95;3.60;;;4.80;99.90;;;;;;5080830;28;20032;-78
2022/01/05 08:40:13;;;;;;;20.05;4.10;;;4.80;99.90;;;;;;5077402;28;20441;-78
2022/01/05 08:42:39;;;;;;;19.02;4.28;;;4.90;99.90;;;;;;5076581;28;20115;-78
2022/01/05 08:45:05;;;;;;;17.77;3.80;;;4.90;99.90;;;;;;5073184;28;20025;-78
2022/01/05 08:47:31;;;;;;;21.25;4.25;;;4.90;99.90;;;;;;5071954;28;20036;-79
2022/01/05 08:49:57;;;;;;;19.35;4.40;;;4.90;99.90;;;;;;5074301;28;20024;-76
2022/01/05 08:52:22;;;;;;;17.05;4.32;;;4.90;99.90;;;;;;5072780;28;20079;-77
2022/01/05 08:54:48;;;;;;;22.30;4.60;;;5.00;99.90;;;;;;5075818;28;20048;-76
2022/01/05 08:57:15;;;;;;;20.10;3.97;;;5.00;99.90;;;;;;5087705;28;20105;-76
2022/01/05 08:59:41;;;;;;;21.95;4.68;;;4.90;99.90;;;;;;5092973;28;20468;-76
2022/01/05 09:02:07;;;;;;;17.98;3.90;;;5.00;99.90;;;;;;5091711;28;20020;-76
2022/01/05 09:04:33;;;;;;;18.05;4.75;;;5.00;99.90;;;;;;5092438;28;20038;-76
2022/01/05 09:06:59;;;;;;;18.63;4.78;;;5.10;99.90;;;;;;5092491;28;20473;-76
2022/01/05 09:09:26;;;;;;;18.05;4.20;;;5.10;99.90;;;;;;5091618;28;20028;-76
2022/01/05 09:11:52;;;;;;;17.80;5.05;;;5.10;99.90;;;;;;5090394;28;20111;-76
2022/01/05 09:14:18;;;;;;;20.70;4.93;;;5.10;99.90;;;;;;5090693;28;20126;-76
2022/01/05 09:16:44;;;;;;;19.92;3.92;;;5.00;99.90;;;;;;5092818;28;20034;-76
2022/01/05 09:19:10;;;;;;;24.08;5.53;;;5.10;99.90;;;;;;5092986;28;20391;-76
2022/01/05 09:21:36;;;;;;;22.85;4.22;;;5.10;99.90;;;;;;5095919;28;20090;-76
2022/01/05 09:24:02;;;;;;;21.75;4.32;;;5.10;99.90;;;;;;5097178;28;20469;-76
2022/01/05 09:26:28;;;;;;;17.30;4.63;;;5.20;99.90;;;;;;5080656;28;20070;-76
2022/01/05 09:28:54;;;;;;;22.95;4.72;;;5.20;99.90;;;;;;5086340;28;20028;-77
2022/01/05 09:31:20;;;;;;;16.20;4.43;;;5.30;99.90;;;;;;5096351;28;20028;-77
2022/01/05 09:33:46;;;;;;;24.08;5.35;;;5.30;99.90;;;;;;5096811;28;20115;-77
2022/01/05 09:36:17;;;;;;;22.77;5.38;;;5.30;99.90;;;;;;5095386;28;20107;-76
2022/01/05 09:44:11;;;;;;;20.23;4.97;;;5.40;99.90;;;;;;5076409;28;20079;-78
2022/01/05 09:47:08;;;;;;;20.85;4.22;;;5.40;99.90;;;;;;5074861;28;20504;-79
2022/01/05 09:49:36;;;;;;;22.77;4.22;;;5.50;99.90;;;;;;5075856;28;20029;-79
2022/01/05 09:52:11;;;;;;;17.45;4.22;;;5.50;99.90;;;;;;5075522;28;20096;-78
2022/01/05 09:54:42;;;;;;;21.23;4.22;;;5.50;99.90;;;;;;5074757;28;20586;-78
2022/01/05 09:57:10;;;;;;;14.30;3.55;;;5.60;99.90;;;;;;5081177;28;20090;-78
2022/01/05 09:59:36;;;;;;;18.77;4.35;;;5.70;99.90;;;;;;5092279;28;20032;-78
2022/01/05 10:02:03;;;;;;;21.00;4.38;;;5.60;99.90;;;;;;5080048;28;20566;-78
2022/01/05 10:04:30;;;;;;;20.50;4.28;;;5.70;99.90;;;;;;5083171;28;20078;-78
2022/01/05 10:06:55;;;;;;;19.77;4.32;;;5.80;99.90;;;;;;5082415;28;20035;-78
2022/01/05 10:09:22;;;;;;;15.90;4.22;;;5.70;99.90;;;;;;5076957;28;20492;-79
2022/01/05 10:11:47;;;;;;;20.55;4.60;;;5.80;99.90;;;;;;5095030;28;20020;-79
2022/01/05 10:14:13;;;;;;;16.40;4.45;;;5.80;99.90;;;;;;5095453;28;20096;-77
2022/01/05 10:16:59;;;;;;;17.77;4.90;;;5.80;99.90;;;;;;5096009;28;20031;-78
2022/01/05 10:19:25;;;;;;;19.00;4.35;;;5.80;99.90;;;;;;5087835;28;20067;-79
2022/01/05 10:21:51;;;;;;;25.05;5.43;;;5.90;99.90;;;;;;5083515;28;20056;-79
2022/01/05 10:24:17;;;;;;;23.38;4.90;;;5.90;99.90;;;;;;5075126;28;20031;-80
2022/01/05 10:26:43;;;;;;;17.00;4.78;;;6.00;99.90;;;;;;5082739;28;20380;-79
2022/01/05 10:29:18;;;;;;;23.17;5.47;;;6.00;99.90;;;;;;5085125;28;20063;-78
2022/01/05 10:31:50;;;;;;;17.50;5.03;;;6.00;99.90;;;;;;5085041;28;20028;-79
2022/01/05 10:34:21;;;;;;;19.02;4.78;;;6.10;99.90;;;;;;5085178;28;20028;-79
2022/01/05 10:36:52;;;;;;;20.80;5.35;;;6.10;99.90;;;;;;5083411;28;20073;-78
2022/01/05 10:39:35;;;;;;;24.60;5.35;;;6.20;99.90;;;;;;5085427;28;20032;-78
2022/01/05 10:42:03;;;;;;;;;;;6.20;99.90;;;;;;5084352;28;20082;-77
2022/01/05 10:44:30;;;;;;;21.85;5.18;;;6.30;99.90;;;;;;5086559;28;19919;-83
2022/01/05 10:46:58;;;;;;;19.50;4.80;;;6.40;99.90;;;;;;5086776;28;20024;-77
2022/01/05 10:49:38;;;;;;;23.20;5.20;;;6.30;99.90;;;;;;5083388;28;20457;-76
2022/01/05 10:52:47;;;;;;;18.73;5.43;;;6.40;99.90;;;;;;5083299;28;20021;-77
2022/01/05 10:55:18;;;;;;;24.75;5.72;;;6.40;99.90;;;;;;5082903;28;20472;-77
2022/01/05 10:58:00;;;;;;;22.40;6.40;;;6.40;99.90;;;;;;5085211;28;20012;-78
2022/01/05 11:00:33;;;;;;;19.15;4.22;;;6.50;99.90;;;;;;5082777;28;20043;-78
2022/01/05 11:02:59;;;;;;;24.92;5.03;;;6.50;99.90;;;;;;5084020;28;20029;-77
2022/01/05 11:05:25;;;;;;;15.68;4.40;;;6.60;99.90;;;;;;5072637;28;20433;-79
2022/01/05 11:08:05;;;;;;;21.77;5.97;;;6.50;99.90;;;;;;5074658;28;20020;-78
2022/01/05 11:10:30;;;;;;;19.77;4.78;;;6.50;99.90;;;;;;5065948;28;20029;-78
2022/01/05 11:12:56;;;;;;;18.42;5.38;;;6.60;99.90;;;;;;5085336;28;20028;-78
2022/01/05 11:15:31;;;;;;;18.35;4.30;;;6.60;99.90;;;;;;5085291;28;20420;-78
2022/01/05 11:18:10;;;;;;;16.98;4.95;;;6.60;99.90;;;;;;5082408;28;20025;-77
2022/01/05 11:20:42;;;;;;;24.70;5.20;;;6.60;99.90;;;;;;5084293;28;20017;-78
2022/01/05 11:23:08;;;;;;;19.83;4.90;;;6.70;99.90;;;;;;5083798;28;20024;-78
2022/01/05 11:25:38;;;;;;;24.08;5.30;;;6.70;99.90;;;;;;5083439;28;20040;-78
2022/01/05 11:28:06;;;;;;;15.68;5.05;;;6.80;99.90;;;;;;5076812;28;20020;-78
2022/01/05 11:30:34;;;;;;;21.48;6.22;;;6.80;99.90;;;;;;5085070;28;20476;-78
2022/01/05 11:33:00;;;;;;;24.17;5.47;;;6.90;99.90;;;;;;5080107;28;20024;-78
2022/01/05 11:35:27;;;;;;;19.33;5.15;;;6.90;99.90;;;;;;5080639;28;20701;-77
2022/01/05 11:37:53;;;;;;;23.48;4.90;;;6.90;99.90;;;;;;5084819;28;20798;-78
2022/01/05 11:40:21;;;;;;;21.35;5.90;;;7.00;99.90;;;;;;5082744;28;20055;-78
2022/01/05 11:42:49;;;;;;;18.55;3.88;;;7.00;99.90;;;;;;5080665;28;20578;-78
2022/01/05 11:45:28;;;;;;;14.27;4.05;;;7.10;99.90;;;;;;5086014;28;20032;-77
2022/01/05 11:48:12;;;;;;;15.55;2.58;;;7.10;99.90;;;;;;5081484;28;20032;-78
2022/01/05 11:50:50;;;;;;;17.00;2.85;;;7.20;99.90;;;;;;5082814;28;20057;-77
2022/01/05 11:53:31;;;;;;;18.20;3.47;;;7.20;99.90;;;;;;5083145;28;20067;-75
2022/01/05 11:55:59;;;;;;;11.82;2.80;;;7.20;99.90;;;;;;5087987;28;20020;-77
2022/01/05 11:58:27;;;;;;;14.57;2.90;;;7.20;99.90;;;;;;5080709;28;20027;-77
2022/01/05 12:01:17;;;;;;;20.02;3.38;;;7.20;99.90;;;;;;5080669;28;20021;-78
2022/01/05 12:03:49;;;;;;;21.83;3.08;;;7.10;99.90;;;;;;5086207;28;20020;-78
2022/01/05 12:06:15;;;;;;;13.35;3.08;;;7.20;99.90;;;;;;5081174;28;20404;-78
2022/01/05 12:08:42;;;;;;;12.25;2.47;;;7.10;99.90;;;;;;5081501;28;20027;-79
2022/01/05 12:11:34;;;;;;;16.65;3.22;;;7.10;99.90;;;;;;5084744;28;20453;-78
2022/01/05 12:14:02;;;;;;;11.32;2.97;;;7.00;99.90;;;;;;5084566;28;20121;-77
2022/01/05 12:16:29;;;;;;;11.68;2.67;;;7.00;99.90;;;;;;5083995;28;20024;-79
2022/01/05 12:19:14;;;;;;;17.13;2.78;;;7.00;99.90;;;;;;5080081;28;20078;-78
2022/01/05 12:21:47;;;;;;;14.80;2.92;;;7.10;99.90;;;;;;5080848;28;20024;-77
2022/01/05 12:24:14;;;;;;;17.02;3.72;;;7.10;99.90;;;;;;5085348;28;20050;-78
2022/01/05 12:26:40;;;;;;;12.85;2.67;;;7.20;99.90;;;;;;5081355;28;20029;-78
2022/01/05 12:29:06;;;;;;;9.93;3.58;;;7.30;99.90;;;;;;5081172;28;20028;-78
2022/01/05 12:31:51;;;;;;;12.75;3.10;;;7.30;99.90;;;;;;5085164;28;20039;-78
2022/01/05 12:34:52;;;;;;;13.52;2.60;;;7.30;99.90;;;;;;5085721;28;20060;-79
2022/01/05 12:37:56;;;;;;;12.40;2.83;;;7.30;99.90;;;;;;5085377;28;20393;-78
2022/01/05 12:40:24;;;;;;;;;;;7.40;99.90;;;;;;5084217;28;20465;-76
2022/01/05 12:43:10;;;;;;;12.00;2.50;;;7.40;99.90;;;;;;5080668;28;19912;-78
2022/01/05 12:46:19;;;;;;;14.38;2.67;;;7.40;99.90;;;;;;5078023;28;20041;-79
2022/01/05 12:48:54;;;;;;;15.20;3.15;;;7.50;99.90;;;;;;5029005;28;20420;-78
2022/01/05 12:51:31;;;;;;;20.40;3.40;;;7.60;99.90;;;;;;5081179;28;20396;-79
2022/01/05 12:54:02;;;;;;;13.13;2.75;;;7.50;99.90;;;;;;5080058;28;20028;-78
2022/01/05 12:56:32;;;;;;;17.25;2.85;;;7.50;99.90;;;;;;5076578;28;20035;-77
2022/01/05 12:58:59;;;;;;;15.07;3.45;;;7.50;99.90;;;;;;5077492;28;20020;-77